This is the latest recevied weather packets stored in our database for station/object K4HOG. If no packets are shown the sender has not sent any weather packets the latest 10 day(s).
| Time | Temp. | Humidity | Pressure | Rain* | Wind** | Luminosity | Snow |
|---|---|---|---|---|---|---|---|
| 1777663010 | 33.33° C | 43% | 1010.1 hPa | 0 mm | - | 791 W/m² | - |
| 1777662707 | 32.78° C | 44% | 1010.4 hPa | 0 mm | - | 412 W/m² | - |
| 1777662403 | 32.22° C | 45% | 1010.4 hPa | 0 mm | - | 881 W/m² | - |
| 1777662098 | 32.78° C | 45% | 1010.3 hPa | 0 mm | - | 509 W/m² | - |
| 1777661794 | 32.22° C | 47% | 1010.3 hPa | 0 mm | - | 711 W/m² | - |
| 1777661490 | 32.22° C | 46% | 1010.3 hPa | 0 mm | - | 870 W/m² | - |
| 1777661187 | 31.67° C | 48% | 1010.3 hPa | 0 mm | - | 830 W/m² | - |
| 1777660881 | 32.22° C | 47% | 1010.5 hPa | 0 mm | - | 312 W/m² | - |
| 1777660578 | 32.78° C | 46% | 1010.6 hPa | 0 mm | - | 647 W/m² | - |
| 1777660275 | 32.78° C | 46% | 1010.7 hPa | 0 mm | - | 568 W/m² | - |
| 1777659971 | 32.78° C | 46% | 1010.8 hPa | 0 mm | - | 735 W/m² | - |
| 1777659669 | 31.67° C | 47% | 1010.7 hPa | 0 mm | - | 1002 W/m² | - |
| 1777659366 | 31.67° C | 48% | 1010.8 hPa | 0 mm | - | 407 W/m² | - |
| 1777659062 | 32.78° C | 45% | 1010.9 hPa | 0 mm | - | 490 W/m² | - |
| 1777658761 | 32.78° C | 46% | 1011 hPa | 0 mm | - | 544 W/m² | - |
| 1777658456 | 32.78° C | 46% | 1011 hPa | 0 mm | - | 740 W/m² | - |
| 1777658153 | 32.22° C | 48% | 1011 hPa | 0 mm | - | 957 W/m² | - |
| 1777657850 | 33.33° C | 43% | 1011.1 hPa | 0 mm | - | 957 W/m² | - |
| 1777657547 | 33.33° C | 47% | 1011.3 hPa | 0 mm | - | 930 W/m² | - |
| 1777657245 | 32.22° C | 45% | 1011.4 hPa | 0 mm | - | 942 W/m² | - |
| 1777656941 | 32.22° C | 46% | 1011.4 hPa | 0 mm | - | 944 W/m² | - |
| 1777656638 | 33.33° C | 44% | 1011.6 hPa | 0 mm | - | 185 W/m² | - |
| 1777656334 | 32.78° C | 46% | 1011.3 hPa | 0 mm | - | 960 W/m² | - |
| 1777656030 | 32.78° C | 49% | 1011.7 hPa | 0 mm | - | 854 W/m² | - |
| 1777655726 | 33.33° C | 45% | 1011.6 hPa | 0 mm | - | 931 W/m² | - |
* Rain latest hour (hover to see other rain measurements)
** Current wind speed in m/s (hover to see current wind gust speed)